Terminal Aerodrome Forecast
Issued by NWS Cleveland, OH

Home | Current Version | Previous Version | Graphics & Text | Print | Product List | Glossary On
Versions: 1 2 3 4 5 6 7 8 9 10 11 12 13 14 15 16
000
FTUS41 KCLE 260700 AAA
TAFTOL
TAF AMD
KTOL 260704Z 2607/2706 03014KT P6SM BKN050 OVC140
     FM260900 02012KT P6SM SCT045 BKN140
     FM261500 01009KT P6SM SCT045 SCT250
     FM262200 35010KT P6SM SCT120 BKN250
     FM270200 34004KT P6SM BKN120=

USA.gov is the U.S. government's official web portal to all federal, state and local government web resources and services.